Time,TemperatureF,DewpointF,PressureIn,WindDirection,WindDirectionDegrees,WindSpeedMPH,WindSpeedGustMPH,Humidity,HourlyPrecipIn,Conditions,Clouds,dailyrainin,SoftwareType,DateUTC
2013-12-05 00:01:00,54.1,53.0,30.15,South,186,0.0,0.0,96,0.00,,---,0.00,VWS V14.01,2013-12-05 05:01:00,
2013-12-05 00:06:00,54.4,53.3,30.15,South,186,0.0,0.0,96,0.00,,---,0.00,VWS V14.01,2013-12-05 05:06:00,
2013-12-05 00:11:00,54.4,53.3,30.14,South,187,0.0,0.0,96,0.00,,---,0.00,VWS V14.01,2013-12-05 05:11:00,
2013-12-05 00:16:00,54.8,53.7,30.15,South,187,0.0,0.0,96,0.00,,---,0.00,VWS V14.01,2013-12-05 05:16:00,
2013-12-05 00:21:00,55.1,54.3,30.15,South,188,0.0,0.0,97,0.00,,---,0.00,VWS V14.01,2013-12-05 05:21:00,
2013-12-05 00:26:00,55.2,54.4,30.14,South,187,1.0,1.0,97,0.00,,---,0.00,VWS V14.01,2013-12-05 05:26:00,
2013-12-05 00:31:00,55.1,54.0,30.14,South,187,0.0,0.0,96,0.00,,---,0.00,VWS V14.01,2013-12-05 05:31:00,
2013-12-05 00:36:00,55.0,53.9,30.15,South,187,0.0,0.0,96,0.00,,---,0.00,VWS V14.01,2013-12-05 05:36:00,
2013-12-05 00:41:00,55.1,54.0,30.14,SSE,157,0.0,0.0,96,0.00,,---,0.00,VWS V14.01,2013-12-05 05:41:00,
2013-12-05 00:46:00,55.0,53.9,30.14,SSE,149,0.0,0.0,96,0.00,,---,0.00,VWS V14.01,2013-12-05 05:46:00,
2013-12-05 00:51:00,55.0,53.9,30.14,South,183,2.0,2.0,96,0.00,,---,0.00,VWS V14.01,2013-12-05 05:51:00,
2013-12-05 00:56:00,55.1,54.0,30.14,SSW,206,1.0,1.0,96,0.00,,---,0.00,VWS V14.01,2013-12-05 05:56:00,
2013-12-05 01:01:00,55.3,54.5,30.14,SSW,207,1.0,2.0,97,0.00,,---,0.00,VWS V14.01,2013-12-05 06:01:00,
2013-12-05 01:06:00,55.7,54.9,30.13,South,188,1.0,2.0,97,0.00,,---,0.00,VWS V14.01,2013-12-05 06:06:00,
2013-12-05 01:11:00,55.9,55.1,30.13,SSW,211,1.0,1.0,97,0.00,,---,0.00,VWS V14.01,2013-12-05 06:11:00,
2013-12-05 01:16:00,55.9,55.1,30.13,South,176,1.0,2.0,97,0.00,,---,0.00,VWS V14.01,2013-12-05 06:16:00,
2013-12-05 01:21:00,55.9,55.1,30.13,SSW,198,1.0,1.0,97,0.00,,---,0.00,VWS V14.01,2013-12-05 06:21:00,
2013-12-05 01:26:00,55.8,54.7,30.13,South,183,0.0,1.0,96,0.00,,---,0.00,VWS V14.01,2013-12-05 06:26:00,
2013-12-05 01:31:00,55.7,54.6,30.13,SSW,201,2.0,2.0,96,0.00,,---,0.00,VWS V14.01,2013-12-05 06:31:00,
2013-12-05 01:36:00,55.5,54.4,30.13,SSW,196,1.0,1.0,96,0.00,,---,0.00,VWS V14.01,2013-12-05 06:36:00,
2013-12-05 01:41:00,55.4,54.3,30.14,SW,222,1.0,1.0,96,0.00,,---,0.00,VWS V14.01,2013-12-05 06:41:00,
2013-12-05 01:46:00,55.2,54.1,30.14,SW,227,0.0,2.0,96,0.00,,---,0.00,VWS V14.01,2013-12-05 06:46:00,
2013-12-05 01:51:00,55.1,54.0,30.14,SSW,194,0.0,0.0,96,0.00,,---,0.00,VWS V14.01,2013-12-05 06:51:00,
2013-12-05 01:56:00,55.1,54.0,30.14,WSW,237,0.0,0.0,96,0.00,,---,0.00,VWS V14.01,2013-12-05 06:56:00,
2013-12-05 02:01:00,55.1,54.3,30.14,SSW,195,0.0,0.0,97,0.00,,---,0.00,VWS V14.01,2013-12-05 07:01:00,
2013-12-05 02:06:00,55.1,54.3,30.14,SSW,211,0.0,1.0,97,0.00,,---,0.00,VWS V14.01,2013-12-05 07:06:00,
2013-12-05 02:11:00,55.1,54.3,30.14,SSW,211,0.0,1.0,97,0.00,,---,0.00,VWS V14.01,2013-12-05 07:11:00,
2013-12-05 02:16:00,55.0,54.2,30.14,SSW,195,1.0,1.0,97,0.00,,---,0.00,VWS V14.01,2013-12-05 07:16:00,
2013-12-05 02:21:00,54.9,54.1,30.14,SSW,202,1.0,2.0,97,0.00,,---,0.00,VWS V14.01,2013-12-05 07:21:00,
2013-12-05 02:26:00,54.8,54.0,30.14,SSW,211,1.0,2.0,97,0.00,,---,0.00,VWS V14.01,2013-12-05 07:26:00,
2013-12-05 02:31:00,54.7,53.9,30.14,South,191,1.0,1.0,97,0.00,,---,0.00,VWS V14.01,2013-12-05 07:31:00,
2013-12-05 02:36:00,54.7,53.9,30.14,South,175,0.0,0.0,97,0.00,,---,0.00,VWS V14.01,2013-12-05 07:36:00,
2013-12-05 02:40:00,54.7,53.9,30.14,SW,236,1.0,2.0,97,0.00,,---,0.00,VWS V14.01,2013-12-05 07:40:00,
2013-12-05 02:45:00,54.7,53.9,30.13,SSW,195,2.0,2.0,97,0.00,,---,0.00,VWS V14.01,2013-12-05 07:45:00,
2013-12-05 02:50:00,54.7,53.9,30.13,SSW,210,1.0,3.0,97,0.00,,---,0.00,VWS V14.01,2013-12-05 07:50:00,
2013-12-05 02:55:00,54.7,53.9,30.14,SW,233,1.0,2.0,97,0.00,,---,0.00,VWS V14.01,2013-12-05 07:55:00,
2013-12-05 03:00:00,54.7,53.9,30.13,SW,230,2.0,2.0,97,0.00,,---,0.00,VWS V14.01,2013-12-05 08:00:00,
2013-12-05 03:05:00,54.9,54.1,30.13,South,183,1.0,3.0,97,0.00,,---,0.00,VWS V14.01,2013-12-05 08:05:00,
2013-12-05 03:10:00,55.1,54.3,30.13,SW,236,1.0,2.0,97,0.00,,---,0.00,VWS V14.01,2013-12-05 08:10:00,
2013-12-05 03:15:00,55.2,54.4,30.13,SW,219,3.0,4.0,97,0.00,,---,0.00,VWS V14.01,2013-12-05 08:15:00,
2013-12-05 03:20:00,55.2,54.4,30.13,WSW,240,1.0,2.0,97,0.00,,---,0.00,VWS V14.01,2013-12-05 08:20:00,
2013-12-05 03:25:00,55.3,54.5,30.12,WSW,246,1.0,2.0,97,0.00,,---,0.00,VWS V14.01,2013-12-05 08:25:00,
2013-12-05 03:30:00,55.4,54.6,30.13,SW,217,2.0,5.0,97,0.00,,---,0.00,VWS V14.01,2013-12-05 08:30:00,
2013-12-05 03:35:00,55.5,54.7,30.13,SW,223,2.0,2.0,97,0.00,,---,0.00,VWS V14.01,2013-12-05 08:35:00,
2013-12-05 03:40:00,55.5,54.7,30.13,WSW,238,0.0,2.0,97,0.00,,---,0.00,VWS V14.01,2013-12-05 08:40:00,
2013-12-05 03:45:00,55.5,54.7,30.13,West,263,0.0,2.0,97,0.00,,---,0.00,VWS V14.01,2013-12-05 08:45:00,
2013-12-05 03:50:00,55.5,54.7,30.13,SW,236,2.0,2.0,97,0.00,,---,0.00,VWS V14.01,2013-12-05 08:50:00,
2013-12-05 03:55:00,55.5,54.7,30.13,WSW,246,3.0,3.0,97,0.00,,---,0.00,VWS V14.01,2013-12-05 08:55:00,
2013-12-05 04:00:00,55.5,54.7,30.14,WSW,249,1.0,1.0,97,0.00,,---,0.00,VWS V14.01,2013-12-05 09:00:00,
2013-12-05 04:05:00,55.5,54.7,30.14,SSW,207,0.0,2.0,97,0.00,,---,0.00,VWS V14.01,2013-12-05 09:05:00,
2013-12-05 04:10:00,55.5,54.7,30.13,SW,216,0.0,1.0,97,0.00,,---,0.00,VWS V14.01,2013-12-05 09:10:00,
2013-12-05 04:15:00,55.5,54.7,30.13,WSW,238,3.0,4.0,97,0.00,,---,0.00,VWS V14.01,2013-12-05 09:15:00,
2013-12-05 04:20:00,55.6,54.8,30.13,SW,222,1.0,2.0,97,0.00,,---,0.00,VWS V14.01,2013-12-05 09:20:00,
2013-12-05 04:25:00,55.6,54.8,30.13,WSW,254,1.0,2.0,97,0.00,,---,0.00,VWS V14.01,2013-12-05 09:25:00,
2013-12-05 04:30:00,55.7,54.9,30.13,SW,215,2.0,3.0,97,0.00,,---,0.00,VWS V14.01,2013-12-05 09:30:00,
2013-12-05 04:35:00,55.7,54.9,30.13,South,185,4.0,4.0,97,0.00,,---,0.00,VWS V14.01,2013-12-05 09:35:00,
2013-12-05 04:40:00,55.7,54.9,30.13,SSW,201,1.0,2.0,97,0.00,,---,0.00,VWS V14.01,2013-12-05 09:40:00,
2013-12-05 04:45:00,55.7,54.9,30.13,SSW,203,2.0,3.0,97,0.00,,---,0.00,VWS V14.01,2013-12-05 09:45:00,
2013-12-05 04:50:00,55.7,54.9,30.13,SSW,205,2.0,2.0,97,0.00,,---,0.00,VWS V14.01,2013-12-05 09:50:00,
2013-12-05 04:55:00,55.7,54.9,30.13,SW,215,1.0,3.0,97,0.00,,---,0.00,VWS V14.01,2013-12-05 09:55:00,
2013-12-05 05:00:00,55.8,55.0,30.13,SSE,166,2.0,3.0,97,0.00,,---,0.00,VWS V14.01,2013-12-05 10:00:00,
2013-12-05 05:05:00,55.9,55.1,30.13,SSW,198,1.0,2.0,97,0.00,,---,0.00,VWS V14.01,2013-12-05 10:05:00,
2013-12-05 05:10:00,55.9,55.1,30.13,SW,221,1.0,3.0,97,0.00,,---,0.00,VWS V14.01,2013-12-05 10:10:00,
2013-12-05 05:15:00,56.0,55.2,30.13,South,180,1.0,1.0,97,0.00,,---,0.00,VWS V14.01,2013-12-05 10:15:00,
2013-12-05 05:20:00,56.0,55.2,30.14,South,191,0.0,0.0,97,0.00,,---,0.00,VWS V14.01,2013-12-05 10:20:00,
2013-12-05 05:25:00,56.0,55.2,30.14,SW,222,1.0,2.0,97,0.00,,---,0.00,VWS V14.01,2013-12-05 10:25:00,
2013-12-05 05:30:00,56.0,55.2,30.14,SSW,206,2.0,4.0,97,0.00,,---,0.00,VWS V14.01,2013-12-05 10:30:00,
2013-12-05 05:35:00,56.0,55.2,30.14,South,172,0.0,0.0,97,0.00,,---,0.00,VWS V14.01,2013-12-05 10:35:00,
2013-12-05 05:40:00,56.0,55.2,30.14,SSW,207,0.0,0.0,97,0.00,,---,0.00,VWS V14.01,2013-12-05 10:40:00,
2013-12-05 05:45:00,56.0,55.2,30.14,SSW,211,0.0,1.0,97,0.00,,---,0.00,VWS V14.01,2013-12-05 10:45:00,
2013-12-05 05:50:00,56.0,55.2,30.15,SSW,200,0.0,0.0,97,0.00,,---,0.00,VWS V14.01,2013-12-05 10:50:00,
2013-12-05 05:55:00,55.9,55.1,30.15,SSW,195,1.0,2.0,97,0.00,,---,0.00,VWS V14.01,2013-12-05 10:55:00,
2013-12-05 06:00:00,55.9,55.1,30.15,SSW,207,3.0,3.0,97,0.00,,---,0.00,VWS V14.01,2013-12-05 11:00:00,
2013-12-05 06:05:00,55.9,55.1,30.14,SSW,196,2.0,2.0,97,0.00,,---,0.00,VWS V14.01,2013-12-05 11:05:00,
2013-12-05 06:10:00,55.9,55.1,30.15,SSW,196,2.0,2.0,97,0.00,,---,0.00,VWS V14.01,2013-12-05 11:10:00,
2013-12-05 06:15:00,55.9,55.1,30.14,South,188,4.0,4.0,97,0.00,,---,0.00,VWS V14.01,2013-12-05 11:15:00,
2013-12-05 06:20:00,55.9,55.1,30.14,South,188,2.0,3.0,97,0.00,,---,0.00,VWS V14.01,2013-12-05 11:20:00,
2013-12-05 06:25:00,55.9,55.1,30.14,SSE,163,2.0,3.0,97,0.00,,---,0.00,VWS V14.01,2013-12-05 11:25:00,
2013-12-05 06:30:00,56.0,55.2,30.14,SSE,167,3.0,4.0,97,0.00,,---,0.00,VWS V14.01,2013-12-05 11:30:00,
2013-12-05 06:35:00,55.9,55.1,30.14,SSW,203,4.0,4.0,97,0.00,,---,0.00,VWS V14.01,2013-12-05 11:35:00,
2013-12-05 06:40:00,55.8,55.0,30.14,South,171,2.0,2.0,97,0.00,,---,0.00,VWS V14.01,2013-12-05 11:40:00,
2013-12-05 06:45:00,55.8,55.0,30.14,SW,231,1.0,2.0,97,0.00,,---,0.00,VWS V14.01,2013-12-05 11:45:00,
2013-12-05 06:50:00,55.8,55.0,30.14,South,188,3.0,4.0,97,0.00,,---,0.00,VWS V14.01,2013-12-05 11:50:00,
2013-12-05 06:55:00,55.8,55.0,30.14,South,188,3.0,5.0,97,0.00,,---,0.00,VWS V14.01,2013-12-05 11:55:00,
2013-12-05 07:00:00,55.8,55.0,30.14,South,173,2.0,2.0,97,0.00,,---,0.00,VWS V14.01,2013-12-05 12:00:00,
2013-12-05 07:05:00,55.8,55.0,30.15,South,175,3.0,3.0,97,0.00,,---,0.00,VWS V14.01,2013-12-05 12:05:00,
2013-12-05 07:10:00,55.9,55.1,30.15,SSE,161,2.0,6.0,97,0.00,,---,0.00,VWS V14.01,2013-12-05 12:10:00,
2013-12-05 07:15:00,55.9,55.1,30.15,SSE,153,1.0,2.0,97,0.00,,---,0.00,VWS V14.01,2013-12-05 12:15:00,
2013-12-05 07:20:00,56.0,55.2,30.15,SSW,207,3.0,4.0,97,0.00,,---,0.00,VWS V14.01,2013-12-05 12:20:00,
2013-12-05 07:25:00,56.1,55.3,30.15,SSW,208,4.0,4.0,97,0.00,,---,0.00,VWS V14.01,2013-12-05 12:25:00,
2013-12-05 07:30:00,56.2,55.4,30.15,South,188,3.0,3.0,97,0.00,,---,0.00,VWS V14.01,2013-12-05 12:30:00,
2013-12-05 07:35:00,56.3,55.5,30.16,SE,125,2.0,2.0,97,0.00,,---,0.00,VWS V14.01,2013-12-05 12:35:00,
2013-12-05 07:40:00,56.4,55.6,30.16,WSW,238,2.0,2.0,97,0.00,,---,0.00,VWS V14.01,2013-12-05 12:40:00,
2013-12-05 07:45:00,56.5,55.7,30.16,WSW,249,3.0,4.0,97,0.00,,---,0.00,VWS V14.01,2013-12-05 12:45:00,
2013-12-05 07:50:00,56.7,55.9,30.16,WSW,245,3.0,3.0,97,0.00,,---,0.00,VWS V14.01,2013-12-05 12:50:00,
2013-12-05 07:55:00,56.7,55.9,30.17,West,279,1.0,2.0,97,0.00,,---,0.00,VWS V14.01,2013-12-05 12:55:00,
2013-12-05 08:00:00,56.7,55.9,30.17,SSW,192,1.0,1.0,97,0.00,,---,0.00,VWS V14.01,2013-12-05 13:00:00,
2013-12-05 08:05:00,56.9,56.1,30.17,WSW,242,6.0,6.0,97,0.00,,---,0.00,VWS V14.01,2013-12-05 13:05:00,
2013-12-05 08:10:00,57.0,56.2,30.17,WSW,246,0.0,2.0,97,0.00,,---,0.00,VWS V14.01,2013-12-05 13:10:00,
2013-12-05 08:15:00,57.0,56.2,30.17,SSW,212,2.0,2.0,97,0.00,,---,0.00,VWS V14.01,2013-12-05 13:15:00,
2013-12-05 08:20:00,56.9,56.1,30.18,SSW,199,2.0,2.0,97,0.00,,---,0.00,VWS V14.01,2013-12-05 13:20:00,
2013-12-05 08:25:00,56.9,56.1,30.18,West,267,1.0,2.0,97,0.00,,---,0.00,VWS V14.01,2013-12-05 13:25:00,
2013-12-05 08:30:00,56.8,56.0,30.18,WSW,248,1.0,1.0,97,0.00,,---,0.00,VWS V14.01,2013-12-05 13:30:00,
2013-12-05 08:35:00,56.8,56.0,30.18,South,176,1.0,1.0,97,0.00,,---,0.00,VWS V14.01,2013-12-05 13:35:00,
2013-12-05 08:40:00,56.8,56.0,30.18,SW,236,1.0,2.0,97,0.00,,---,0.00,VWS V14.01,2013-12-05 13:40:00,
2013-12-05 08:45:00,56.9,56.1,30.18,SW,236,1.0,2.0,97,0.00,,---,0.00,VWS V14.01,2013-12-05 13:45:00,
2013-12-05 08:50:00,57.0,56.2,30.18,WSW,246,1.0,1.0,97,0.00,,---,0.00,VWS V14.01,2013-12-05 13:50:00,
2013-12-05 08:55:00,57.1,56.3,30.18,SSW,203,2.0,2.0,97,0.00,,---,0.00,VWS V14.01,2013-12-05 13:55:00,
2013-12-05 09:00:00,57.2,56.4,30.18,SSW,203,1.0,6.0,97,0.00,,---,0.00,VWS V14.01,2013-12-05 14:00:00,
2013-12-05 09:05:00,57.4,56.8,30.18,WSW,246,1.0,1.0,98,0.00,,---,0.00,VWS V14.01,2013-12-05 14:05:00,
2013-12-05 09:10:00,57.5,56.9,30.18,SW,221,1.0,1.0,98,0.00,,---,0.00,VWS V14.01,2013-12-05 14:10:00,
2013-12-05 09:15:00,57.6,57.0,30.19,SSW,203,3.0,3.0,98,0.00,,---,0.00,VWS V14.01,2013-12-05 14:15:00,
2013-12-05 09:20:00,57.6,57.0,30.19,SW,230,0.0,0.0,98,0.00,,---,0.00,VWS V14.01,2013-12-05 14:20:00,
2013-12-05 09:25:00,57.8,57.2,30.19,West,261,2.0,4.0,98,0.00,,---,0.00,VWS V14.01,2013-12-05 14:25:00,
2013-12-05 09:30:00,58.0,57.4,30.18,SW,227,2.0,2.0,98,0.00,,---,0.00,VWS V14.01,2013-12-05 14:30:00,
2013-12-05 09:35:00,58.2,57.6,30.19,SW,229,0.0,5.0,98,0.00,,---,0.00,VWS V14.01,2013-12-05 14:35:00,
2013-12-05 09:40:00,58.4,57.8,30.19,SW,221,0.0,0.0,98,0.00,,---,0.00,VWS V14.01,2013-12-05 14:40:00,
2013-12-05 09:45:00,58.6,58.0,30.19,SSE,168,5.0,5.0,98,0.00,,---,0.00,VWS V14.01,2013-12-05 14:45:00,
2013-12-05 09:50:00,58.9,58.3,30.18,SSW,209,1.0,3.0,98,0.00,,---,0.00,VWS V14.01,2013-12-05 14:50:00,
2013-12-05 09:55:00,59.1,58.5,30.19,South,191,3.0,3.0,98,0.00,,---,0.00,VWS V14.01,2013-12-05 14:55:00,
2013-12-05 10:00:00,59.2,58.6,30.19,WSW,246,3.0,4.0,98,0.00,,---,0.00,VWS V14.01,2013-12-05 15:00:00,
2013-12-05 10:05:00,59.3,58.7,30.19,South,186,3.0,4.0,98,0.00,,---,0.00,VWS V14.01,2013-12-05 15:05:00,
2013-12-05 10:10:00,59.4,58.8,30.19,SSW,202,3.0,4.0,98,0.00,,---,0.00,VWS V14.01,2013-12-05 15:10:00,
2013-12-05 10:15:00,59.4,58.8,30.19,SSW,194,4.0,5.0,98,0.00,,---,0.00,VWS V14.01,2013-12-05 15:15:00,
2013-12-05 10:20:00,59.6,59.0,30.18,SSW,207,3.0,4.0,98,0.00,,---,0.00,VWS V14.01,2013-12-05 15:20:00,
2013-12-05 10:25:00,59.7,59.1,30.18,ESE,113,3.0,4.0,98,0.00,,---,0.00,VWS V14.01,2013-12-05 15:25:00,
2013-12-05 10:29:00,59.7,59.1,30.18,WSW,248,3.0,4.0,98,0.00,,---,0.00,VWS V14.01,2013-12-05 15:29:00,
2013-12-05 10:34:00,59.9,59.3,30.18,SW,223,1.0,5.0,98,0.00,,---,0.00,VWS V14.01,2013-12-05 15:34:00,
2013-12-05 10:39:00,59.9,59.3,30.18,SSW,211,1.0,2.0,98,0.00,,---,0.00,VWS V14.01,2013-12-05 15:39:00,
2013-12-05 10:44:00,60.0,59.4,30.18,South,180,5.0,5.0,98,0.00,,---,0.00,VWS V14.01,2013-12-05 15:44:00,
2013-12-05 10:49:00,60.2,59.6,30.17,SSW,205,4.0,4.0,98,0.00,,---,0.00,VWS V14.01,2013-12-05 15:49:00,
2013-12-05 10:54:00,60.4,59.8,30.18,South,169,3.0,3.0,98,0.00,,---,0.00,VWS V14.01,2013-12-05 15:54:00,
2013-12-05 10:59:00,60.7,60.1,30.17,WSW,257,2.0,6.0,98,0.00,,---,0.00,VWS V14.01,2013-12-05 15:59:00,
2013-12-05 11:04:00,60.8,60.2,30.17,SW,230,1.0,5.0,98,0.00,,---,0.00,VWS V14.01,2013-12-05 16:04:00,
2013-12-05 11:09:00,61.0,60.4,30.17,WSW,252,2.0,2.0,98,0.00,,---,0.00,VWS V14.01,2013-12-05 16:09:00,
2013-12-05 11:14:00,61.1,60.5,30.17,SSW,201,4.0,5.0,98,0.00,,---,0.00,VWS V14.01,2013-12-05 16:14:00,
2013-12-05 11:19:00,61.2,60.6,30.17,WSW,250,3.0,7.0,98,0.00,,---,0.00,VWS V14.01,2013-12-05 16:19:00,
2013-12-05 11:24:00,61.3,60.7,30.17,WSW,241,6.0,6.0,98,0.00,,---,0.00,VWS V14.01,2013-12-05 16:24:00,
2013-12-05 11:29:00,61.3,60.4,30.17,SSW,209,2.0,5.0,97,0.00,,---,0.00,VWS V14.01,2013-12-05 16:29:00,
2013-12-05 11:34:00,61.2,60.3,30.16,SSE,166,2.0,5.0,97,0.00,,---,0.00,VWS V14.01,2013-12-05 16:34:00,
2013-12-05 11:39:00,61.3,60.4,30.16,WSW,254,3.0,3.0,97,0.00,,---,0.00,VWS V14.01,2013-12-05 16:39:00,
2013-12-05 11:44:00,61.4,60.5,30.16,SW,233,5.0,5.0,97,0.00,,---,0.00,VWS V14.01,2013-12-05 16:44:00,
2013-12-05 11:49:00,61.7,60.8,30.16,WSW,255,0.0,2.0,97,0.00,,---,0.00,VWS V14.01,2013-12-05 16:49:00,
2013-12-05 11:54:00,62.0,61.1,30.16,SW,229,4.0,4.0,97,0.00,,---,0.00,VWS V14.01,2013-12-05 16:54:00,
2013-12-05 11:59:00,62.1,61.2,30.15,WSW,253,4.0,5.0,97,0.00,,---,0.00,VWS V14.01,2013-12-05 16:59:00,
2013-12-05 12:04:00,62.1,61.2,30.14,SW,220,4.0,5.0,97,0.00,,---,0.00,VWS V14.01,2013-12-05 17:04:00,
2013-12-05 12:09:00,62.1,61.2,30.14,West,271,0.0,4.0,97,0.00,,---,0.00,VWS V14.01,2013-12-05 17:09:00,
2013-12-05 12:14:00,62.2,61.3,30.14,West,268,3.0,5.0,97,0.00,,---,0.00,VWS V14.01,2013-12-05 17:14:00,
2013-12-05 12:19:00,62.2,61.3,30.14,South,187,2.0,4.0,97,0.00,,---,0.00,VWS V14.01,2013-12-05 17:19:00,
2013-12-05 12:24:00,62.3,61.4,30.13,WSW,240,2.0,3.0,97,0.00,,---,0.00,VWS V14.01,2013-12-05 17:24:00,
2013-12-05 12:29:00,62.4,61.5,30.13,South,184,3.0,3.0,97,0.00,,---,0.00,VWS V14.01,2013-12-05 17:29:00,
2013-12-05 12:34:00,62.5,61.6,30.13,SSW,199,3.0,3.0,97,0.00,,---,0.00,VWS V14.01,2013-12-05 17:34:00,
2013-12-05 12:39:00,62.4,61.5,30.13,SW,219,3.0,4.0,97,0.00,,---,0.00,VWS V14.01,2013-12-05 17:39:00,
2013-12-05 12:44:00,62.6,61.7,30.13,South,175,4.0,6.0,97,0.00,,---,0.00,VWS V14.01,2013-12-05 17:44:00,
2013-12-05 12:49:00,62.5,61.6,30.13,SSW,213,2.0,5.0,97,0.00,,---,0.00,VWS V14.01,2013-12-05 17:49:00,
2013-12-05 12:54:00,62.7,61.8,30.13,SW,230,6.0,6.0,97,0.00,,---,0.00,VWS V14.01,2013-12-05 17:54:00,
2013-12-05 12:59:00,62.8,61.7,30.13,SW,216,2.0,4.0,96,0.00,,---,0.00,VWS V14.01,2013-12-05 17:59:00,
2013-12-05 13:04:00,63.1,61.9,30.13,SW,232,5.0,5.0,96,0.00,,---,0.00,VWS V14.01,2013-12-05 18:04:00,
2013-12-05 13:09:00,63.2,62.0,30.12,WSW,254,2.0,3.0,96,0.00,,---,0.00,VWS V14.01,2013-12-05 18:09:00,
2013-12-05 13:14:00,63.4,62.2,30.12,SW,223,2.0,3.0,96,0.00,,---,0.00,VWS V14.01,2013-12-05 18:14:00,
2013-12-05 13:19:00,63.6,62.2,30.12,WSW,249,2.0,2.0,95,0.00,,---,0.00,VWS V14.01,2013-12-05 18:19:00,
2013-12-05 13:24:00,63.9,62.4,30.12,WSW,242,2.0,8.0,95,0.00,,---,0.00,VWS V14.01,2013-12-05 18:24:00,
2013-12-05 13:29:00,64.2,62.4,30.12,WSW,252,5.0,6.0,94,0.00,,---,0.00,VWS V14.01,2013-12-05 18:29:00,
2013-12-05 13:34:00,64.6,62.8,30.11,West,265,4.0,5.0,94,0.00,,---,0.00,VWS V14.01,2013-12-05 18:34:00,
2013-12-05 13:39:00,64.8,62.7,30.11,SW,222,3.0,5.0,93,0.00,,---,0.00,VWS V14.01,2013-12-05 18:39:00,
2013-12-05 13:44:00,65.1,62.7,30.11,West,269,3.0,3.0,92,0.00,,---,0.00,VWS V14.01,2013-12-05 18:44:00,
2013-12-05 13:49:00,65.2,62.8,30.11,SW,223,2.0,3.0,92,0.00,,---,0.00,VWS V14.01,2013-12-05 18:49:00,
2013-12-05 13:54:00,65.4,63.0,30.11,WSW,256,1.0,1.0,92,0.00,,---,0.00,VWS V14.01,2013-12-05 18:54:00,
2013-12-05 13:59:00,65.6,62.9,30.11,WSW,257,3.0,3.0,91,0.00,,---,0.00,VWS V14.01,2013-12-05 18:59:00,
2013-12-05 14:05:00,65.7,63.0,30.11,SW,217,3.0,5.0,91,0.00,,---,0.00,VWS V14.01,2013-12-05 19:05:00,
2013-12-05 14:10:00,65.9,62.9,30.11,WSW,240,4.0,6.0,90,0.00,,---,0.00,VWS V14.01,2013-12-05 19:10:00,
2013-12-05 14:15:00,66.1,63.1,30.11,SW,215,3.0,3.0,90,0.00,,---,0.00,VWS V14.01,2013-12-05 19:15:00,
2013-12-05 14:20:00,66.2,62.9,30.11,SSE,167,2.0,6.0,89,0.00,,---,0.00,VWS V14.01,2013-12-05 19:20:00,
2013-12-05 14:25:00,66.3,63.0,30.10,SSW,205,3.0,7.0,89,0.00,,---,0.00,VWS V14.01,2013-12-05 19:25:00,
2013-12-05 14:30:00,66.5,63.2,30.11,West,271,3.0,3.0,89,0.00,,---,0.00,VWS V14.01,2013-12-05 19:30:00,
2013-12-05 14:35:00,66.6,63.3,30.10,WSW,241,3.0,3.0,89,0.00,,---,0.00,VWS V14.01,2013-12-05 19:35:00,
2013-12-05 14:40:00,66.6,62.9,30.11,SW,222,5.0,7.0,88,0.00,,---,0.00,VWS V14.01,2013-12-05 19:40:00,
2013-12-05 14:45:00,66.7,63.4,30.10,WSW,254,2.0,3.0,89,0.00,,---,0.00,VWS V14.01,2013-12-05 19:45:00,
2013-12-05 14:50:00,66.8,63.1,30.10,WSW,242,1.0,2.0,88,0.00,,---,0.00,VWS V14.01,2013-12-05 19:50:00,
2013-12-05 14:55:00,66.8,63.1,30.10,West,276,2.0,3.0,88,0.00,,---,0.00,VWS V14.01,2013-12-05 19:55:00,
2013-12-05 15:00:00,66.8,63.1,30.10,SSW,201,2.0,4.0,88,0.00,,---,0.00,VWS V14.01,2013-12-05 20:00:00,
2013-12-05 15:05:00,66.9,63.6,30.10,SW,219,2.0,2.0,89,0.00,,---,0.00,VWS V14.01,2013-12-05 20:05:00,
2013-12-05 15:10:00,66.9,63.6,30.10,West,271,2.0,2.0,89,0.00,,---,0.00,VWS V14.01,2013-12-05 20:10:00,
2013-12-05 15:15:00,67.0,63.7,30.10,SSW,202,2.0,2.0,89,0.00,,---,0.00,VWS V14.01,2013-12-05 20:15:00,
2013-12-05 15:21:00,67.0,63.7,30.10,South,169,3.0,3.0,89,0.00,,---,0.00,VWS V14.01,2013-12-05 20:21:00,
2013-12-05 15:26:00,67.0,63.7,30.10,South,172,0.0,0.0,89,0.00,,---,0.00,VWS V14.01,2013-12-05 20:26:00,
2013-12-05 15:31:00,67.0,63.7,30.10,SSW,208,1.0,3.0,89,0.00,,---,0.00,VWS V14.01,2013-12-05 20:31:00,
2013-12-05 15:36:00,67.0,63.7,30.10,SW,221,0.0,1.0,89,0.00,,---,0.00,VWS V14.01,2013-12-05 20:36:00,
2013-12-05 15:41:00,67.1,63.8,30.09,SSW,205,2.0,4.0,89,0.00,,---,0.00,VWS V14.01,2013-12-05 20:41:00,
2013-12-05 15:46:00,67.2,63.8,30.10,South,178,1.0,1.0,89,0.00,,---,0.00,VWS V14.01,2013-12-05 20:46:00,
2013-12-05 15:51:00,67.3,64.0,30.10,SW,236,0.0,0.0,89,0.00,,---,0.00,VWS V14.01,2013-12-05 20:51:00,
2013-12-05 15:56:00,67.4,64.1,30.10,SW,225,0.0,0.0,89,0.00,,---,0.00,VWS V14.01,2013-12-05 20:56:00,
2013-12-05 16:01:00,67.4,64.1,30.10,SW,232,2.0,2.0,89,0.00,,---,0.00,VWS V14.01,2013-12-05 21:01:00,
2013-12-05 16:06:00,67.5,64.2,30.10,SSE,163,0.0,1.0,89,0.00,,---,0.00,VWS V14.01,2013-12-05 21:06:00,
2013-12-05 16:11:00,67.6,64.2,30.10,West,259,0.0,2.0,89,0.00,,---,0.00,VWS V14.01,2013-12-05 21:11:00,
2013-12-05 16:16:00,67.6,64.2,30.10,SSW,199,1.0,1.0,89,0.00,,---,0.00,VWS V14.01,2013-12-05 21:16:00,
2013-12-05 16:21:00,67.6,63.9,30.10,SSW,203,0.0,1.0,88,0.00,,---,0.00,VWS V14.01,2013-12-05 21:21:00,
2013-12-05 16:26:00,67.7,64.0,30.10,SSW,206,0.0,0.0,88,0.00,,---,0.00,VWS V14.01,2013-12-05 21:26:00,
2013-12-05 16:31:00,67.6,63.9,30.11,SSW,207,1.0,1.0,88,0.00,,---,0.00,VWS V14.01,2013-12-05 21:31:00,
2013-12-05 16:36:00,67.6,63.9,30.11,South,179,1.0,1.0,88,0.00,,---,0.00,VWS V14.01,2013-12-05 21:36:00,
2013-12-05 16:41:00,67.5,63.8,30.10,SSW,194,1.0,1.0,88,0.00,,---,0.00,VWS V14.01,2013-12-05 21:41:00,
2013-12-05 16:46:00,67.5,63.8,30.11,South,180,2.0,4.0,88,0.00,,---,0.00,VWS V14.01,2013-12-05 21:46:00,
2013-12-05 16:51:00,67.5,63.8,30.10,SSW,211,2.0,2.0,88,0.00,,---,0.00,VWS V14.01,2013-12-05 21:51:00,
2013-12-05 16:56:00,67.4,63.7,30.10,SSW,211,0.0,2.0,88,0.00,,---,0.00,VWS V14.01,2013-12-05 21:56:00,
2013-12-05 17:01:00,67.3,63.6,30.10,SSE,150,1.0,2.0,88,0.00,,---,0.00,VWS V14.01,2013-12-05 22:01:00,
2013-12-05 17:06:00,67.1,63.8,30.10,South,175,1.0,2.0,89,0.00,,---,0.00,VWS V14.01,2013-12-05 22:06:00,
2013-12-05 17:11:00,67.0,63.7,30.10,South,173,2.0,2.0,89,0.00,,---,0.00,VWS V14.01,2013-12-05 22:11:00,
2013-12-05 17:16:00,66.9,63.6,30.10,SE,146,1.0,2.0,89,0.00,,---,0.00,VWS V14.01,2013-12-05 22:16:00,
2013-12-05 17:21:00,66.7,63.7,30.10,SSW,207,2.0,2.0,90,0.00,,---,0.00,VWS V14.01,2013-12-05 22:21:00,
2013-12-05 17:27:00,66.6,63.6,30.10,SE,142,0.0,1.0,90,0.00,,---,0.00,VWS V14.01,2013-12-05 22:27:00,
2013-12-05 17:32:00,66.4,63.4,30.10,SSE,164,0.0,0.0,90,0.00,,---,0.00,VWS V14.01,2013-12-05 22:32:00,
2013-12-05 17:37:00,66.3,63.3,30.10,South,190,1.0,1.0,90,0.00,,---,0.00,VWS V14.01,2013-12-05 22:37:00,
2013-12-05 17:42:00,66.2,63.2,30.10,SE,136,2.0,2.0,90,0.00,,---,0.00,VWS V14.01,2013-12-05 22:42:00,
2013-12-05 17:47:00,66.2,63.2,30.09,SSE,160,1.0,1.0,90,0.00,,---,0.00,VWS V14.01,2013-12-05 22:47:00,
2013-12-05 17:52:00,66.1,63.1,30.10,South,169,0.0,0.0,90,0.00,,---,0.00,VWS V14.01,2013-12-05 22:52:00,
2013-12-05 17:57:00,66.0,63.0,30.10,SSW,206,0.0,0.0,90,0.00,,---,0.00,VWS V14.01,2013-12-05 22:57:00,
2013-12-05 18:02:00,65.9,62.9,30.10,SW,219,0.0,0.0,90,0.00,,---,0.00,VWS V14.01,2013-12-05 23:02:00,
2013-12-05 18:07:00,65.8,63.1,30.10,SW,216,1.0,2.0,91,0.00,,---,0.00,VWS V14.01,2013-12-05 23:07:00,
2013-12-05 18:12:00,65.9,63.2,30.10,SW,221,1.0,1.0,91,0.00,,---,0.00,VWS V14.01,2013-12-05 23:12:00,
2013-12-05 18:17:00,65.9,62.9,30.10,SW,217,0.0,0.0,90,0.00,,---,0.00,VWS V14.01,2013-12-05 23:17:00,
2013-12-05 18:22:00,65.9,62.9,30.11,SW,226,0.0,0.0,90,0.00,,---,0.00,VWS V14.01,2013-12-05 23:22:00,
2013-12-05 18:27:00,65.9,62.9,30.11,SW,226,0.0,0.0,90,0.00,,---,0.00,VWS V14.01,2013-12-05 23:27:00,
2013-12-05 18:32:00,65.8,62.8,30.11,West,261,0.0,0.0,90,0.00,,---,0.00,VWS V14.01,2013-12-05 23:32:00,
2013-12-05 18:37:00,65.8,63.1,30.11,West,275,0.0,0.0,91,0.00,,---,0.00,VWS V14.01,2013-12-05 23:37:00,
2013-12-05 18:42:00,65.7,63.0,30.11,West,275,0.0,0.0,91,0.00,,---,0.00,VWS V14.01,2013-12-05 23:42:00,
2013-12-05 18:47:00,65.6,62.9,30.11,West,275,0.0,0.0,91,0.00,,---,0.00,VWS V14.01,2013-12-05 23:47:00,
2013-12-05 18:52:00,65.6,62.9,30.11,West,275,0.0,0.0,91,0.00,,---,0.00,VWS V14.01,2013-12-05 23:52:00,
2013-12-05 18:57:00,65.5,62.8,30.11,West,275,0.0,0.0,91,0.00,,---,0.00,VWS V14.01,2013-12-05 23:57:00,
2013-12-05 19:02:00,65.5,62.8,30.11,SSW,205,0.0,0.0,91,0.00,,---,0.00,VWS V14.01,2013-12-06 00:02:00,
2013-12-05 19:07:00,65.4,63.0,30.11,WSW,240,0.0,0.0,92,0.00,,---,0.00,VWS V14.01,2013-12-06 00:07:00,
2013-12-05 19:12:00,65.5,63.1,30.11,SSW,205,1.0,1.0,92,0.00,,---,0.00,VWS V14.01,2013-12-06 00:12:00,
2013-12-05 19:17:00,65.5,62.8,30.11,SW,225,0.0,0.0,91,0.00,,---,0.00,VWS V14.01,2013-12-06 00:17:00,
2013-12-05 19:22:00,65.5,63.1,30.11,SSE,156,2.0,3.0,92,0.00,,---,0.00,VWS V14.01,2013-12-06 00:22:00,
2013-12-05 19:27:00,65.5,63.1,30.10,South,188,1.0,2.0,92,0.00,,---,0.00,VWS V14.01,2013-12-06 00:27:00,
2013-12-05 19:32:00,65.5,63.1,30.10,South,186,2.0,2.0,92,0.00,,---,0.00,VWS V14.01,2013-12-06 00:32:00,
2013-12-05 19:37:00,65.5,63.1,30.10,SW,221,2.0,2.0,92,0.00,,---,0.00,VWS V14.01,2013-12-06 00:37:00,
2013-12-05 19:42:00,65.5,63.1,30.10,SSW,211,2.0,2.0,92,0.00,,---,0.00,VWS V14.01,2013-12-06 00:42:00,
2013-12-05 19:47:00,65.5,63.1,30.11,WSW,249,0.0,1.0,92,0.00,,---,0.00,VWS V14.01,2013-12-06 00:47:00,
2013-12-05 19:52:00,65.5,63.1,30.11,SW,214,1.0,2.0,92,0.00,,---,0.00,VWS V14.01,2013-12-06 00:52:00,
2013-12-05 19:57:00,65.5,63.1,30.11,SSW,211,2.0,2.0,92,0.00,,---,0.00,VWS V14.01,2013-12-06 00:57:00,
2013-12-05 20:02:00,65.5,63.1,30.11,SSW,200,1.0,2.0,92,0.00,,---,0.00,VWS V14.01,2013-12-06 01:02:00,
2013-12-05 20:07:00,65.5,63.1,30.11,SW,215,1.0,1.0,92,0.00,,---,0.00,VWS V14.01,2013-12-06 01:07:00,
2013-12-05 20:12:00,65.6,63.2,30.11,SSW,211,2.0,2.0,92,0.00,,---,0.00,VWS V14.01,2013-12-06 01:12:00,
2013-12-05 20:17:00,65.6,63.5,30.11,SSW,205,2.0,2.0,93,0.00,,---,0.00,VWS V14.01,2013-12-06 01:17:00,
2013-12-05 20:22:00,65.7,63.3,30.12,SSW,205,2.0,2.0,92,0.00,,---,0.00,VWS V14.01,2013-12-06 01:22:00,
2013-12-05 20:27:00,65.8,63.4,30.11,WSW,250,0.0,0.0,92,0.00,,---,0.00,VWS V14.01,2013-12-06 01:27:00,
2013-12-05 20:32:00,65.8,63.4,30.11,WSW,241,1.0,1.0,92,0.00,,---,0.00,VWS V14.01,2013-12-06 01:32:00,
2013-12-05 20:37:00,65.8,63.4,30.11,SSW,211,2.0,2.0,92,0.00,,---,0.00,VWS V14.01,2013-12-06 01:37:00,
2013-12-05 20:42:00,65.9,63.5,30.11,South,186,3.0,3.0,92,0.00,,---,0.00,VWS V14.01,2013-12-06 01:42:00,
2013-12-05 20:47:00,65.9,63.5,30.10,SSW,198,1.0,2.0,92,0.00,,---,0.00,VWS V14.01,2013-12-06 01:47:00,
2013-12-05 20:52:00,65.9,63.5,30.10,SSW,194,1.0,1.0,92,0.00,,---,0.00,VWS V14.01,2013-12-06 01:52:00,
2013-12-05 20:57:00,66.0,63.6,30.10,West,266,1.0,1.0,92,0.00,,---,0.00,VWS V14.01,2013-12-06 01:57:00,
2013-12-05 21:02:00,65.9,63.5,30.10,SW,225,0.0,2.0,92,0.00,,---,0.00,VWS V14.01,2013-12-06 02:02:00,
2013-12-05 21:07:00,65.9,63.5,30.10,WSW,241,2.0,3.0,92,0.00,,---,0.00,VWS V14.01,2013-12-06 02:07:00,
2013-12-05 21:12:00,65.8,63.7,30.10,SSW,209,2.0,2.0,93,0.00,,---,0.00,VWS V14.01,2013-12-06 02:12:00,
2013-12-05 21:17:00,65.6,63.5,30.10,WSW,245,1.0,2.0,93,0.00,,---,0.00,VWS V14.01,2013-12-06 02:17:00,
2013-12-05 21:22:00,65.6,63.5,30.11,SSW,202,4.0,4.0,93,0.00,,---,0.00,VWS V14.01,2013-12-06 02:22:00,
2013-12-05 21:27:00,65.6,63.5,30.11,SW,230,1.0,4.0,93,0.00,,---,0.00,VWS V14.01,2013-12-06 02:27:00,
2013-12-05 21:32:00,65.6,63.5,30.11,SSW,208,2.0,2.0,93,0.00,,---,0.00,VWS V14.01,2013-12-06 02:32:00,
2013-12-05 21:37:00,65.5,63.4,30.11,West,262,3.0,3.0,93,0.00,,---,0.00,VWS V14.01,2013-12-06 02:37:00,
2013-12-05 21:42:00,65.5,63.4,30.11,SSW,209,4.0,4.0,93,0.00,,---,0.00,VWS V14.01,2013-12-06 02:42:00,
2013-12-05 21:47:00,65.6,63.8,30.11,WSW,257,2.0,3.0,94,0.00,,---,0.00,VWS V14.01,2013-12-06 02:47:00,
2013-12-05 21:52:00,65.6,63.8,30.11,South,178,1.0,2.0,94,0.00,,---,0.00,VWS V14.01,2013-12-06 02:52:00,
2013-12-05 21:57:00,65.6,63.8,30.11,SW,223,2.0,4.0,94,0.00,,---,0.00,VWS V14.01,2013-12-06 02:57:00,
2013-12-05 22:02:00,65.6,63.8,30.11,WSW,238,1.0,1.0,94,0.00,,---,0.00,VWS V14.01,2013-12-06 03:02:00,
2013-12-05 22:07:00,65.6,63.8,30.11,SW,227,3.0,3.0,94,0.00,,---,0.00,VWS V14.01,2013-12-06 03:07:00,
2013-12-05 22:12:00,65.6,63.8,30.11,SW,227,2.0,4.0,94,0.00,,---,0.00,VWS V14.01,2013-12-06 03:12:00,
2013-12-05 22:17:00,65.6,63.8,30.11,SW,233,2.0,2.0,94,0.00,,---,0.00,VWS V14.01,2013-12-06 03:17:00,
2013-12-05 22:22:00,65.7,63.9,30.11,SW,230,2.0,5.0,94,0.00,,---,0.00,VWS V14.01,2013-12-06 03:22:00,
2013-12-05 22:27:00,65.7,63.9,30.10,SSW,209,1.0,3.0,94,0.00,,---,0.00,VWS V14.01,2013-12-06 03:27:00,
2013-12-05 22:32:00,65.7,63.9,30.10,WSW,242,7.0,7.0,94,0.00,,---,0.00,VWS V14.01,2013-12-06 03:32:00,
2013-12-05 22:37:00,65.7,63.9,30.10,SW,229,3.0,4.0,94,0.00,,---,0.00,VWS V14.01,2013-12-06 03:37:00,
2013-12-05 22:42:00,65.7,63.9,30.10,SSW,213,5.0,5.0,94,0.00,,---,0.00,VWS V14.01,2013-12-06 03:42:00,
2013-12-05 22:47:00,65.8,64.0,30.10,SSW,201,3.0,3.0,94,0.00,,---,0.00,VWS V14.01,2013-12-06 03:47:00,
2013-12-05 22:52:00,65.8,64.0,30.10,South,188,2.0,5.0,94,0.00,,---,0.00,VWS V14.01,2013-12-06 03:52:00,
2013-12-05 22:57:00,65.9,64.1,30.10,WSW,248,2.0,4.0,94,0.00,,---,0.00,VWS V14.01,2013-12-06 03:57:00,
2013-12-05 23:02:00,65.9,64.1,30.10,WSW,244,2.0,2.0,94,0.00,,---,0.00,VWS V14.01,2013-12-06 04:02:00,
2013-12-05 23:07:00,65.9,64.1,30.09,SW,221,4.0,5.0,94,0.00,,---,0.00,VWS V14.01,2013-12-06 04:07:00,
2013-12-05 23:12:00,65.9,64.1,30.09,West,261,2.0,3.0,94,0.00,,---,0.00,VWS V14.01,2013-12-06 04:12:00,
2013-12-05 23:17:00,65.9,64.1,30.09,SW,227,6.0,6.0,94,0.00,,---,0.00,VWS V14.01,2013-12-06 04:17:00,
2013-12-05 23:22:00,66.0,64.2,30.09,SW,225,6.0,6.0,94,0.00,,---,0.00,VWS V14.01,2013-12-06 04:22:00,
2013-12-05 23:27:00,65.9,63.8,30.10,SSW,195,3.0,4.0,93,0.00,,---,0.00,VWS V14.01,2013-12-06 04:27:00,
2013-12-05 23:32:00,65.9,63.8,30.10,SSW,203,3.0,4.0,93,0.00,,---,0.00,VWS V14.01,2013-12-06 04:32:00,
2013-12-05 23:37:00,65.9,63.8,30.10,WSW,244,2.0,2.0,93,0.00,,---,0.00,VWS V14.01,2013-12-06 04:37:00,
2013-12-05 23:42:00,65.9,63.8,30.09,South,183,5.0,8.0,93,0.00,,---,0.00,VWS V14.01,2013-12-06 04:42:00,
2013-12-05 23:47:00,65.9,64.1,30.09,West,259,7.0,8.0,94,0.00,,---,0.00,VWS V14.01,2013-12-06 04:47:00,
2013-12-05 23:52:00,65.9,64.1,30.09,SW,221,3.0,3.0,94,0.00,,---,0.00,VWS V14.01,2013-12-06 04:52:00,
2013-12-05 23:57:00,65.8,64.0,30.09,WSW,238,4.0,8.0,94,0.00,,---,0.00,VWS V14.01,2013-12-06 04:57:00,